Time;durP1;ratioP1;P1;durP2;ratioP2;P2;SDS_P1;SDS_P2;PMS_P1;PMS_P2;Temp;Humidity;BMP_temperature;BMP_pressure;BME280_temperature;BME280_humidity;BME280_pressure;Samples;Min_cycle;Max_cycle;Signal;HPM_P1;HPM_P2
2023/08/25 00:00:29;;;;;;;41.70;35.67;;;20.20;99.90;;;;;;5096968;28;20425;-81
2023/08/25 00:02:55;;;;;;;41.65;37.17;;;20.20;99.90;;;;;;5077959;28;20769;-81
2023/08/25 00:05:21;;;;;;;42.72;34.80;;;19.90;99.90;;;;;;5094541;28;20962;-81
2023/08/25 00:07:46;;;;;;;40.33;35.60;;;20.10;99.90;;;;;;5072968;28;20412;-81
2023/08/25 00:10:13;;;;;;;39.80;35.63;;;20.30;99.90;;;;;;5079251;28;20510;-81
2023/08/25 00:12:39;;;;;;;41.38;36.28;;;20.40;99.90;;;;;;5092702;28;20420;-82
2023/08/25 00:15:05;;;;;;;39.13;34.80;;;20.10;99.90;;;;;;5086309;28;20408;-81
2023/08/25 00:17:32;;;;;;;40.88;36.03;;;20.00;99.90;;;;;;5094136;28;20469;-81
2023/08/25 00:19:58;;;;;;;41.05;36.42;;;20.00;99.90;;;;;;5093479;28;20436;-81
2023/08/25 00:22:24;;;;;;;42.05;36.47;;;20.30;99.90;;;;;;5074810;28;20462;-81
2023/08/25 00:24:52;;;;;;;42.17;36.80;;;19.90;99.90;;;;;;5070413;28;20515;-81
2023/08/25 00:27:18;;;;;;;42.78;36.67;;;20.30;99.90;;;;;;5112591;27;20508;-81
2023/08/25 00:29:44;;;;;;;43.88;37.30;;;19.80;99.90;;;;;;5078380;28;20742;-81
2023/08/25 00:32:10;;;;;;;45.65;39.53;;;19.80;99.90;;;;;;5102647;28;20483;-81
2023/08/25 00:34:35;;;;;;;46.13;37.90;;;20.00;99.90;;;;;;5088235;28;20507;-80
2023/08/25 00:37:01;;;;;;;42.77;38.13;;;19.80;99.90;;;;;;5113255;27;20498;-81
2023/08/25 00:39:27;;;;;;;44.67;38.80;;;19.80;99.90;;;;;;5075926;28;20397;-79
2023/08/25 00:41:54;;;;;;;46.70;38.55;;;19.80;99.90;;;;;;5064948;28;20463;-81
2023/08/25 00:44:20;;;;;;;46.35;38.65;;;20.10;99.90;;;;;;5080098;28;20472;-80
2023/08/25 00:46:45;;;;;;;46.67;39.30;;;20.10;99.90;;;;;;5110538;28;20926;-81
2023/08/25 00:49:12;;;;;;;48.90;39.90;;;19.90;99.90;;;;;;5127309;27;20473;-80
2023/08/25 00:51:38;;;;;;;48.60;40.33;;;19.80;99.90;;;;;;5119322;27;20804;-80
2023/08/25 00:54:05;;;;;;;48.42;40.67;;;19.90;99.90;;;;;;5074975;28;20509;-80
2023/08/25 00:56:31;;;;;;;48.23;40.53;;;19.70;99.90;;;;;;5096737;28;20895;-80
2023/08/25 00:58:57;;;;;;;51.78;42.00;;;19.70;99.90;;;;;;5135103;27;20439;-79
2023/08/25 01:01:23;;;;;;;50.28;41.78;;;19.50;99.90;;;;;;5103453;28;20420;-80
2023/08/25 01:03:49;;;;;;;50.08;41.80;;;19.70;99.90;;;;;;5093698;28;20500;-80
2023/08/25 01:06:15;;;;;;;53.30;44.08;;;19.70;99.90;;;;;;5091579;28;20514;-80
2023/08/25 01:08:42;;;;;;;51.27;42.80;;;19.60;99.90;;;;;;5073932;28;20758;-80
2023/08/25 01:11:26;;;;;;;52.45;42.80;;;19.80;99.90;;;;;;5072601;28;20938;-80
2023/08/25 01:14:23;;;;;;;54.35;42.13;;;19.70;99.90;;;;;;5098029;28;20421;-81
2023/08/25 01:17:04;;;;;;;51.13;42.58;;;19.70;99.90;;;;;;5101052;28;20415;-81
2023/08/25 01:19:51;;;;;;;52.35;42.33;;;19.60;99.90;;;;;;5107054;28;20844;-80
2023/08/25 01:22:44;;;;;;;52.63;43.50;;;20.00;99.90;;;;;;5105725;28;20840;-80
2023/08/25 01:25:32;;;;;;;53.38;43.22;;;19.80;99.90;;;;;;5109541;28;20759;-79
2023/08/25 01:28:03;;;;;;;51.78;41.67;;;19.60;99.90;;;;;;5094400;28;20422;-79
2023/08/25 01:30:30;;;;;;;51.57;42.20;;;19.60;99.90;;;;;;5092281;28;20625;-80
2023/08/25 01:33:06;;;;;;;54.28;43.25;;;19.60;99.90;;;;;;5086896;28;20449;-80
2023/08/25 01:35:58;;;;;;;52.42;42.92;;;19.70;99.90;;;;;;5111920;28;20449;-80
2023/08/25 01:38:32;;;;;;;49.45;41.65;;;19.70;99.90;;;;;;5108594;28;20409;-79
2023/08/25 01:41:10;;;;;;;50.95;41.25;;;19.70;99.90;;;;;;5119297;27;20420;-79
2023/08/25 01:43:41;;;;;;;53.53;41.58;;;19.50;99.90;;;;;;5089267;28;20413;-80
2023/08/25 01:46:09;;;;;;;50.22;41.65;;;19.60;99.90;;;;;;5125692;27;20413;-80
2023/08/25 01:48:36;;;;;;;49.40;41.25;;;19.70;99.90;;;;;;5074752;28;20445;-80
2023/08/25 01:51:02;;;;;;;48.40;40.95;;;19.70;99.90;;;;;;5063161;28;20457;-81
2023/08/25 01:53:29;;;;;;;52.70;41.33;;;19.80;99.90;;;;;;5111135;28;20449;-81
2023/08/25 01:55:55;;;;;;;55.30;42.38;;;19.80;99.90;;;;;;5111685;27;20918;-82
2023/08/25 01:58:21;;;;;;;53.80;42.53;;;19.80;99.90;;;;;;5094220;28;20426;-81
2023/08/25 02:00:46;;;;;;;54.73;42.23;;;19.70;99.90;;;;;;5094401;28;20503;-81
2023/08/25 02:03:13;;;;;;;56.15;42.13;;;19.80;99.90;;;;;;5082086;28;20418;-81
2023/08/25 02:05:40;;;;;;;54.30;42.40;;;19.60;99.90;;;;;;5108335;27;20419;-81
2023/08/25 02:08:07;;;;;;;50.90;40.28;;;19.80;99.90;;;;;;5078467;28;20418;-81
2023/08/25 02:10:32;;;;;;;56.38;42.88;;;19.70;99.90;;;;;;5136708;27;20457;-81
2023/08/25 02:12:58;;;;;;;57.80;43.78;;;19.90;99.90;;;;;;5108218;28;20428;-79
2023/08/25 02:15:24;;;;;;;57.13;43.42;;;19.70;99.90;;;;;;5107722;28;20409;-81
2023/08/25 02:17:50;;;;;;;54.67;43.70;;;19.70;99.90;;;;;;5099430;28;20538;-81
2023/08/25 02:20:16;;;;;;;57.40;43.57;;;19.50;99.90;;;;;;5080308;28;20426;-81
2023/08/25 02:22:41;;;;;;;55.60;42.70;;;19.50;99.90;;;;;;5107257;28;20416;-80
2023/08/25 02:25:07;;;;;;;56.60;43.17;;;19.40;99.90;;;;;;5091431;28;20420;-80
2023/08/25 02:27:33;;;;;;;59.63;43.35;;;19.50;99.90;;;;;;5091844;28;20583;-80
2023/08/25 02:29:59;;;;;;;57.93;43.90;;;19.50;99.90;;;;;;5094905;28;20977;-80
2023/08/25 02:32:24;;;;;;;58.73;42.70;;;19.50;99.90;;;;;;5072227;28;20452;-81
2023/08/25 02:34:50;;;;;;;58.05;42.17;;;19.40;99.90;;;;;;5091531;28;20426;-81
2023/08/25 02:37:16;;;;;;;59.67;43.42;;;19.30;99.90;;;;;;5102731;28;20410;-81
2023/08/25 02:39:41;;;;;;;61.40;42.93;;;19.40;99.90;;;;;;5105625;28;20775;-81
2023/08/25 02:42:07;;;;;;;55.63;41.70;;;19.30;99.90;;;;;;5110911;28;20431;-81
2023/08/25 02:44:33;;;;;;;55.67;41.13;;;19.50;99.90;;;;;;5112197;28;20442;-81
2023/08/25 02:46:59;;;;;;;57.70;42.13;;;19.40;99.90;;;;;;5111494;28;20911;-82
2023/08/25 02:49:24;;;;;;;61.70;41.93;;;19.20;99.90;;;;;;5143795;27;20904;-82
2023/08/25 02:51:50;;;;;;;59.03;41.50;;;19.40;99.90;;;;;;5094936;28;20418;-81
2023/08/25 02:54:16;;;;;;;56.13;41.83;;;19.40;99.90;;;;;;5084311;28;20418;-82
2023/08/25 02:56:41;;;;;;;59.70;42.08;;;19.20;99.90;;;;;;5086490;28;20435;-81
2023/08/25 02:59:07;;;;;;;60.80;42.73;;;19.20;99.90;;;;;;5088836;28;20417;-80
2023/08/25 03:01:33;;;;;;;57.45;41.63;;;19.40;99.90;;;;;;5118625;27;20531;-80
2023/08/25 03:03:59;;;;;;;62.78;42.55;;;19.40;99.90;;;;;;5091946;28;20771;-79
2023/08/25 03:06:24;;;;;;;60.40;42.83;;;19.20;99.90;;;;;;5116841;27;20503;-81
2023/08/25 03:08:50;;;;;;;60.90;42.47;;;19.10;99.90;;;;;;5095319;28;20415;-81
2023/08/25 03:11:16;;;;;;;63.28;43.55;;;19.20;99.90;;;;;;5112696;27;20847;-80
2023/08/25 03:13:42;;;;;;;60.05;41.72;;;19.40;99.90;;;;;;5078690;27;20451;-81
2023/08/25 03:16:07;;;;;;;63.97;43.88;;;17.60;99.90;;;;;;5101950;28;20452;-81
2023/08/25 03:18:34;;;;;;;61.00;42.30;;;19.80;99.90;;;;;;5077049;28;20735;-81
2023/08/25 03:21:00;;;;;;;65.55;43.85;;;19.30;99.90;;;;;;5077678;28;20459;-82
2023/08/25 03:23:25;;;;;;;62.72;43.47;;;19.50;99.90;;;;;;5101877;28;20408;-82
2023/08/25 03:25:51;;;;;;;59.22;42.58;;;19.60;99.90;;;;;;5096121;28;20462;-81
2023/08/25 03:28:17;;;;;;;57.83;41.40;;;19.40;99.90;;;;;;5088176;28;20420;-82
2023/08/25 03:30:42;;;;;;;64.05;43.47;;;19.40;99.90;;;;;;5105120;28;20423;-81
2023/08/25 03:33:08;;;;;;;64.05;43.50;;;19.50;99.90;;;;;;5079003;28;20420;-81
2023/08/25 03:35:35;;;;;;;63.60;43.37;;;19.40;99.90;;;;;;5092771;28;20427;-81
2023/08/25 03:38:01;;;;;;;65.35;44.30;;;19.50;99.90;;;;;;5096893;28;20449;-80
2023/08/25 03:40:27;;;;;;;65.28;43.85;;;19.30;99.90;;;;;;5092116;28;20412;-81
2023/08/25 03:42:53;;;;;;;68.50;45.43;;;19.50;99.90;;;;;;5096344;28;20416;-82
2023/08/25 03:45:19;;;;;;;66.40;45.03;;;19.30;99.90;;;;;;5078958;28;20417;-81
2023/08/25 03:47:45;;;;;;;69.80;45.73;;;19.20;99.90;;;;;;5077155;28;20410;-82
2023/08/25 03:50:10;;;;;;;67.70;45.97;;;19.60;99.90;;;;;;5120447;27;20425;-82
2023/08/25 03:52:36;;;;;;;72.53;47.53;;;19.70;99.90;;;;;;5090740;28;20422;-82
2023/08/25 03:55:03;;;;;;;71.80;46.40;;;19.30;99.90;;;;;;5094092;28;20426;-81
2023/08/25 03:57:29;;;;;;;70.97;47.75;;;19.40;99.90;;;;;;5091164;28;20807;-81
2023/08/25 03:59:54;;;;;;;74.85;47.60;;;19.40;99.90;;;;;;5077407;28;20418;-81
2023/08/25 04:02:20;;;;;;;78.63;49.22;;;19.30;99.90;;;;;;5077447;28;20418;-81
2023/08/25 04:04:46;;;;;;;70.67;47.23;;;19.40;99.90;;;;;;5111019;28;20412;-81
2023/08/25 04:07:13;;;;;;;78.60;49.03;;;19.80;99.90;;;;;;5093736;28;20485;-81
2023/08/25 04:09:41;;;;;;;76.03;48.67;;;19.40;99.90;;;;;;5138954;27;20425;-80
2023/08/25 04:12:07;;;;;;;82.50;49.63;;;19.50;99.90;;;;;;5127483;27;20397;-81
2023/08/25 04:14:34;;;;;;;76.05;47.38;;;19.60;99.90;;;;;;5096152;28;20427;-82
2023/08/25 04:17:00;;;;;;;74.30;47.78;;;19.50;99.90;;;;;;5094798;28;20416;-82
2023/08/25 04:19:26;;;;;;;69.50;46.75;;;19.50;99.90;;;;;;5073463;28;20921;-82
2023/08/25 04:21:51;;;;;;;76.10;47.75;;;19.60;99.90;;;;;;5070560;28;20415;-81
2023/08/25 04:24:18;;;;;;;72.43;46.65;;;19.60;99.90;;;;;;5094188;28;20408;-81
2023/08/25 04:26:44;;;;;;;68.00;45.65;;;19.40;99.90;;;;;;5110701;28;20427;-81
2023/08/25 04:29:09;;;;;;;79.63;48.83;;;19.30;99.90;;;;;;5083768;28;20426;-81
2023/08/25 04:31:36;;;;;;;74.05;46.60;;;19.50;99.90;;;;;;5100856;28;21781;-82
2023/08/25 04:34:03;;;;;;;78.60;48.45;;;19.50;99.90;;;;;;5148808;27;20400;-81
2023/08/25 04:36:28;;;;;;;80.75;48.78;;;19.40;99.90;;;;;;5141715;27;20932;-82
2023/08/25 04:38:54;;;;;;;79.40;49.25;;;19.60;99.90;;;;;;5091660;28;20487;-82
2023/08/25 04:41:20;;;;;;;83.03;50.33;;;19.70;99.90;;;;;;5097770;28;20826;-81
2023/08/25 04:43:46;;;;;;;86.47;50.50;;;19.50;99.90;;;;;;5129011;27;20456;-81
2023/08/25 04:46:12;;;;;;;74.10;46.77;;;18.80;99.90;;;;;;5092286;28;20953;-81
2023/08/25 04:48:43;;;;;;;81.00;48.78;;;19.40;99.90;;;;;;5093002;28;20455;-81
2023/08/25 04:51:08;;;;;;;77.18;47.97;;;19.70;99.90;;;;;;5076489;28;20412;-81
2023/08/25 04:53:34;;;;;;;81.00;48.05;;;19.30;99.90;;;;;;5103064;28;20418;-82
2023/08/25 04:56:00;;;;;;;76.43;47.83;;;19.50;99.90;;;;;;5077664;28;20443;-82
2023/08/25 04:58:25;;;;;;;80.27;48.27;;;19.30;99.90;;;;;;5101865;28;20921;-81
2023/08/25 05:00:51;;;;;;;76.47;48.60;;;20.40;99.90;;;;;;5113119;28;20428;-81
2023/08/25 05:03:17;;;;;;;71.05;46.45;;;19.60;99.90;;;;;;5083648;28;20427;-81
2023/08/25 05:05:42;;;;;;;74.57;46.77;;;19.70;99.90;;;;;;5092666;28;20418;-81
2023/08/25 05:08:08;;;;;;;74.45;47.13;;;19.70;99.90;;;;;;5076434;28;20414;-81
2023/08/25 05:10:34;;;;;;;75.97;47.90;;;19.60;99.90;;;;;;5072086;28;20408;-81
2023/08/25 05:13:00;;;;;;;78.40;46.83;;;19.70;99.90;;;;;;5111392;28;20528;-81
2023/08/25 05:15:25;;;;;;;74.53;47.17;;;19.50;99.90;;;;;;5078600;28;20433;-81
2023/08/25 05:17:51;;;;;;;70.57;46.23;;;19.90;99.90;;;;;;5073911;28;20457;-82
2023/08/25 05:20:23;;;;;;;84.80;47.72;;;19.30;99.90;;;;;;5075737;28;20390;-81
2023/08/25 05:22:50;;;;;;;73.07;46.75;;;19.50;99.90;;;;;;5135783;27;20965;-82
2023/08/25 05:25:17;;;;;;;71.07;46.65;;;19.50;99.90;;;;;;5109720;27;20457;-81
2023/08/25 05:27:43;;;;;;;71.32;47.85;;;19.40;99.90;;;;;;5092394;28;20398;-81
2023/08/25 05:30:09;;;;;;;76.43;47.27;;;19.60;99.90;;;;;;5084456;28;20426;-81
2023/08/25 05:32:34;;;;;;;74.00;46.67;;;19.40;99.90;;;;;;5131306;27;20418;-80
2023/08/25 05:35:00;;;;;;;74.03;46.80;;;19.60;99.90;;;;;;5074074;28;20417;-81
2023/08/25 05:37:26;;;;;;;78.77;47.43;;;19.50;99.90;;;;;;5075185;28;20826;-80
2023/08/25 05:39:52;;;;;;;80.15;47.22;;;19.60;99.90;;;;;;5122481;27;20455;-81
2023/08/25 05:42:18;;;;;;;74.45;46.97;;;19.80;99.90;;;;;;5088384;28;20433;-83
2023/08/25 05:44:44;;;;;;;76.78;46.70;;;19.60;99.90;;;;;;5098126;28;20412;-82
2023/08/25 05:47:10;;;;;;;81.38;46.58;;;19.20;99.90;;;;;;5085310;28;20416;-83
2023/08/25 05:49:35;;;;;;;74.13;46.00;;;19.80;99.90;;;;;;5094557;28;20488;-83
2023/08/25 05:52:01;;;;;;;76.13;46.97;;;19.60;99.90;;;;;;5098843;28;21110;-83
2023/08/25 05:54:27;;;;;;;80.60;47.67;;;19.50;99.90;;;;;;5114781;28;20504;-84
2023/08/25 05:56:56;;;;;;;77.20;46.45;;;19.60;99.90;;;;;;5067215;28;20420;-82
2023/08/25 05:59:22;;;;;;;79.30;47.28;;;20.00;99.90;;;;;;5083927;28;20425;-82
2023/08/25 06:01:48;;;;;;;71.53;45.55;;;19.60;99.90;;;;;;5079676;28;20452;-83
2023/08/25 06:04:14;;;;;;;74.85;44.47;;;19.80;99.90;;;;;;5086925;28;20419;-81
2023/08/25 06:06:41;;;;;;;72.90;44.63;;;19.60;99.90;;;;;;5110093;28;20417;-81
2023/08/25 06:09:08;;;;;;;69.47;41.90;;;19.70;99.90;;;;;;5062135;28;20421;-82
2023/08/25 06:11:34;;;;;;;64.47;42.60;;;19.90;99.90;;;;;;5114419;28;20433;-82
2023/08/25 06:14:00;;;;;;;64.97;41.70;;;19.90;99.90;;;;;;5084267;28;20484;-82
2023/08/25 06:16:26;;;;;;;64.38;41.45;;;20.30;99.90;;;;;;5111869;28;20571;-81
2023/08/25 06:18:52;;;;;;;60.75;40.70;;;20.10;99.90;;;;;;5099568;28;20510;-82
2023/08/25 06:21:18;;;;;;;59.38;40.53;;;20.00;99.90;;;;;;5106223;28;20549;-83
2023/08/25 06:23:44;;;;;;;61.63;39.55;;;20.10;99.90;;;;;;5105011;28;20439;-83
2023/08/25 06:26:09;;;;;;;61.85;40.55;;;20.00;99.90;;;;;;5100531;28;20443;-82
2023/08/25 06:28:35;;;;;;;62.83;40.03;;;20.10;99.90;;;;;;5084604;28;20417;-83
2023/08/25 06:31:01;;;;;;;64.67;41.87;;;20.20;99.90;;;;;;5097393;28;20457;-82
2023/08/25 06:33:29;;;;;;;62.33;39.28;;;20.20;99.90;;;;;;5104732;28;20424;-83
2023/08/25 06:35:56;;;;;;;58.78;39.70;;;20.10;99.90;;;;;;5098222;28;20431;-82
2023/08/25 06:38:23;;;;;;;63.53;40.67;;;20.30;99.90;;;;;;5092183;28;20495;-82
2023/08/25 06:40:50;;;;;;;65.90;41.80;;;20.20;99.90;;;;;;5119962;27;20445;-82
2023/08/25 06:43:16;;;;;;;63.92;40.70;;;20.40;99.90;;;;;;5100188;28;20421;-83
2023/08/25 06:45:42;;;;;;;66.35;42.42;;;20.20;99.90;;;;;;5104311;28;20423;-83
2023/08/25 06:48:08;;;;;;;65.33;41.23;;;20.40;99.90;;;;;;5096937;28;22260;-83
2023/08/25 06:50:33;;;;;;;69.82;43.25;;;20.10;99.90;;;;;;5110412;28;20416;-82
2023/08/25 06:52:59;;;;;;;67.55;41.83;;;20.20;99.90;;;;;;5107906;28;20401;-82
2023/08/25 06:55:25;;;;;;;67.30;42.37;;;20.20;99.90;;;;;;5084672;28;20901;-78
2023/08/25 06:57:51;;;;;;;66.60;42.60;;;20.30;99.90;;;;;;5093496;28;20409;-84
2023/08/25 07:00:20;;;;;;;71.97;43.85;;;20.60;99.90;;;;;;5084442;28;20423;-84
2023/08/25 07:02:46;;;;;;;73.88;45.78;;;20.20;99.90;;;;;;5136305;27;20418;-85
2023/08/25 07:05:13;;;;;;;76.25;45.40;;;20.10;99.90;;;;;;5132122;27;20436;-84
2023/08/25 07:07:38;;;;;;;74.00;44.42;;;20.10;99.90;;;;;;5085579;28;20467;-85
2023/08/25 07:10:05;;;;;;;74.88;45.33;;;20.00;99.90;;;;;;5094851;28;20426;-85
2023/08/25 07:12:31;;;;;;;76.40;45.53;;;20.20;99.90;;;;;;5133005;27;20909;-84
2023/08/25 07:14:56;;;;;;;71.15;45.53;;;20.30;99.90;;;;;;5096673;28;20758;-85
2023/08/25 07:17:22;;;;;;;69.88;44.95;;;20.80;99.90;;;;;;5109894;28;20499;-84
2023/08/25 07:19:48;;;;;;;69.43;44.70;;;20.40;99.90;;;;;;5088040;28;20904;-84
2023/08/25 07:22:14;;;;;;;75.28;45.83;;;18.80;99.90;;;;;;5088428;28;20445;-83
2023/08/25 07:24:39;;;;;;;74.93;46.65;;;20.10;99.90;;;;;;5096937;28;20412;-77
2023/08/25 07:27:05;;;;;;;80.97;48.97;;;20.00;99.90;;;;;;5100078;28;20485;-78
2023/08/25 07:29:35;;;;;;;80.30;49.30;;;20.20;99.90;;;;;;5104501;28;20424;-79
2023/08/25 07:32:01;;;;;;;82.90;51.60;;;20.20;99.90;;;;;;5116957;27;20416;-78
2023/08/25 07:34:27;;;;;;;83.50;49.85;;;20.20;99.90;;;;;;5070758;28;22463;-77
2023/08/25 07:36:53;;;;;;;78.97;47.55;;;20.00;99.90;;;;;;5133976;27;20955;-77
2023/08/25 07:39:19;;;;;;;76.90;48.27;;;20.40;99.90;;;;;;5101592;27;20464;-77
2023/08/25 07:41:45;;;;;;;75.32;46.72;;;20.20;99.90;;;;;;5137000;27;20428;-77
2023/08/25 07:44:11;;;;;;;75.95;45.65;;;20.30;99.90;;;;;;5085289;28;20429;-77
2023/08/25 07:46:38;;;;;;;73.13;46.40;;;20.40;99.90;;;;;;5097418;28;20695;-77
2023/08/25 07:49:06;;;;;;;68.70;43.83;;;19.40;99.90;;;;;;5098894;28;20483;-78
2023/08/25 07:51:32;;;;;;;67.05;44.05;;;20.60;99.90;;;;;;5067713;28;20436;-77
2023/08/25 07:53:57;;;;;;;65.10;42.75;;;20.40;99.90;;;;;;5104473;28;20425;-77
2023/08/25 07:56:23;;;;;;;71.70;43.77;;;20.60;99.90;;;;;;5094949;28;20455;-79
2023/08/25 07:58:49;;;;;;;62.83;41.70;;;20.70;99.90;;;;;;5127477;27;20413;-79
2023/08/25 08:01:14;;;;;;;67.93;43.33;;;21.20;99.90;;;;;;5108922;27;20915;-76
2023/08/25 08:03:40;;;;;;;62.20;42.90;;;20.70;99.90;;;;;;5128480;27;20410;-74
2023/08/25 08:06:06;;;;;;;62.70;42.70;;;21.10;99.90;;;;;;5088023;28;20414;-75
2023/08/25 08:08:31;;;;;;;69.80;42.93;;;21.30;99.90;;;;;;5125911;27;20416;-75
2023/08/25 08:10:57;;;;;;;69.53;44.87;;;21.20;99.90;;;;;;5105167;28;20432;-75
2023/08/25 08:13:23;;;;;;;67.57;44.58;;;21.00;99.90;;;;;;5085543;28;20933;-74
2023/08/25 08:15:49;;;;;;;70.35;46.97;;;20.90;99.90;;;;;;5093209;28;20498;-75
2023/08/25 08:18:15;;;;;;;67.90;45.30;;;21.00;99.90;;;;;;5094792;28;20888;-74
2023/08/25 08:20:40;;;;;;;73.40;46.90;;;21.00;99.90;;;;;;5082882;28;20413;-75
2023/08/25 08:23:06;;;;;;;68.72;45.20;;;21.00;99.90;;;;;;5114363;27;20418;-75
2023/08/25 08:25:33;;;;;;;68.43;46.77;;;20.80;99.90;;;;;;5080559;28;20418;-75
2023/08/25 08:27:59;;;;;;;70.20;46.80;;;20.70;99.90;;;;;;5097435;27;20420;-76
2023/08/25 08:30:25;;;;;;;68.82;46.10;;;20.80;99.90;;;;;;5078081;28;20424;-75
2023/08/25 08:32:51;;;;;;;65.80;44.83;;;20.70;99.90;;;;;;5099371;27;20422;-76
2023/08/25 08:35:17;;;;;;;62.60;42.40;;;21.00;99.90;;;;;;5106090;28;20488;-76
2023/08/25 08:37:43;;;;;;;54.95;38.63;;;20.80;99.90;;;;;;5089786;28;20405;-76
2023/08/25 08:40:09;;;;;;;54.55;37.40;;;20.80;99.90;;;;;;5089188;28;20416;-75
2023/08/25 08:42:37;;;;;;;50.20;36.35;;;21.10;99.90;;;;;;5094725;28;20483;-75
2023/08/25 08:45:08;;;;;;;53.08;35.53;;;20.90;99.90;;;;;;5130032;27;20416;-75
2023/08/25 08:47:37;;;;;;;49.10;34.77;;;21.20;99.90;;;;;;5081700;28;20503;-76
2023/08/25 08:50:06;;;;;;;45.47;33.13;;;21.30;99.90;;;;;;5112054;27;20489;-75
2023/08/25 08:52:32;;;;;;;46.95;33.28;;;21.30;99.90;;;;;;5128217;27;20437;-76
2023/08/25 08:54:59;;;;;;;42.38;32.17;;;21.40;99.90;;;;;;5116283;27;20415;-75
2023/08/25 08:57:31;;;;;;;44.28;31.45;;;21.80;99.90;;;;;;5119808;27;20408;-76
2023/08/25 08:59:58;;;;;;;45.08;31.92;;;21.90;99.90;;;;;;5088070;27;20424;-76
2023/08/25 09:02:28;;;;;;;41.95;30.33;;;21.50;99.90;;;;;;5129196;27;20432;-75
2023/08/25 09:04:58;;;;;;;41.78;31.90;;;21.90;99.90;;;;;;5123763;27;20416;-76
2023/08/25 09:07:33;;;;;;;46.97;32.08;;;21.80;99.90;;;;;;5079000;28;20895;-76
2023/08/25 09:10:00;;;;;;;43.90;32.15;;;21.80;99.90;;;;;;5131243;27;20417;-75
2023/08/25 09:12:26;;;;;;;42.47;33.17;;;21.80;99.90;;;;;;5088870;28;20473;-76
2023/08/25 09:14:51;;;;;;;46.75;33.00;;;21.90;99.90;;;;;;5114772;27;20438;-76
2023/08/25 09:17:18;;;;;;;48.53;32.57;;;21.70;99.90;;;;;;5090073;28;20442;-76
2023/08/25 09:19:44;;;;;;;47.25;33.78;;;21.80;99.90;;;;;;5075561;28;20417;-75
2023/08/25 09:22:11;;;;;;;51.58;35.58;;;21.70;99.90;;;;;;5090774;28;20967;-76
2023/08/25 09:24:41;;;;;;;47.55;35.20;;;21.80;99.90;;;;;;5124863;27;20422;-76
2023/08/25 09:27:23;;;;;;;48.10;35.00;;;21.50;99.90;;;;;;5126755;27;20459;-75
2023/08/25 09:29:57;;;;;;;42.60;33.40;;;21.90;99.90;;;;;;5074278;28;20442;-75
2023/08/25 09:32:24;;;;;;;45.30;34.10;;;22.00;99.90;;;;;;5108636;28;20757;-76
2023/08/25 09:34:50;;;;;;;46.17;33.85;;;21.60;99.90;;;;;;5103195;28;20416;-76
2023/08/25 09:37:15;;;;;;;47.17;33.15;;;21.70;99.90;;;;;;5095824;28;20503;-76
2023/08/25 09:39:45;;;;;;;46.10;33.07;;;21.80;99.90;;;;;;5095359;28;20806;-76
2023/08/25 09:42:11;;;;;;;50.53;34.17;;;21.80;99.90;;;;;;5095765;28;20416;-75
2023/08/25 09:44:38;;;;;;;46.67;33.40;;;21.70;99.90;;;;;;5112180;28;20404;-76
2023/08/25 09:47:06;;;;;;;47.08;35.42;;;21.90;99.90;;;;;;5146293;27;20406;-75
2023/08/25 09:49:39;;;;;;;48.63;34.90;;;21.80;99.90;;;;;;5145168;27;20415;-76
2023/08/25 09:52:12;;;;;;;49.53;36.05;;;22.00;99.90;;;;;;5146595;27;20396;-76
2023/08/25 09:54:38;;;;;;;47.70;35.22;;;22.00;99.90;;;;;;5095321;28;20432;-76
2023/08/25 09:57:04;;;;;;;46.58;35.00;;;22.10;99.90;;;;;;5095705;28;20392;-75
2023/08/25 09:59:30;;;;;;;47.28;35.65;;;22.00;99.90;;;;;;5095281;28;20749;-75
2023/08/25 10:01:57;;;;;;;48.90;34.55;;;22.00;99.90;;;;;;5109700;28;21004;-74
2023/08/25 10:04:24;;;;;;;50.22;36.45;;;21.80;99.90;;;;;;5111887;28;20429;-76
2023/08/25 10:06:51;;;;;;;51.88;35.60;;;21.90;99.90;;;;;;5081419;28;20447;-75
2023/08/25 10:09:18;;;;;;;48.67;35.80;;;21.70;99.90;;;;;;5116305;28;20398;-75
2023/08/25 10:11:45;;;;;;;49.42;35.83;;;22.10;99.90;;;;;;5099409;28;20743;-76
2023/08/25 10:14:12;;;;;;;47.40;33.90;;;22.20;99.90;;;;;;5099014;28;20423;-75
2023/08/25 10:16:45;;;;;;;49.38;34.45;;;22.30;99.90;;;;;;5098957;28;20406;-75
2023/08/25 10:19:16;;;;;;;48.95;35.58;;;22.20;99.90;;;;;;5115035;28;20449;-75
2023/08/25 10:21:44;;;;;;;47.35;35.67;;;22.30;99.90;;;;;;5129354;27;20422;-76
2023/08/25 10:24:11;;;;;;;53.00;37.63;;;22.20;99.90;;;;;;5129828;27;20393;-77
2023/08/25 10:26:38;;;;;;;52.30;38.22;;;22.00;99.90;;;;;;5095693;28;20409;-76
2023/08/25 10:29:04;;;;;;;61.10;41.55;;;22.00;99.90;;;;;;5061212;28;20463;-75
2023/08/25 10:31:32;;;;;;;60.08;40.65;;;21.70;99.90;;;;;;5095313;28;20908;-75
2023/08/25 10:33:58;;;;;;;55.85;39.42;;;22.00;99.90;;;;;;5105773;27;20454;-76
2023/08/25 10:36:24;;;;;;;58.13;41.00;;;21.60;99.90;;;;;;5098362;28;20435;-76
2023/08/25 10:38:59;;;;;;;62.20;40.53;;;21.70;99.90;;;;;;5150297;27;20435;-75
2023/08/25 10:41:27;;;;;;;55.85;40.67;;;21.60;99.90;;;;;;5115720;28;20420;-77
2023/08/25 10:43:54;;;;;;;57.97;41.10;;;21.50;99.90;;;;;;5098787;28;20407;-75
2023/08/25 10:46:22;;;;;;;56.50;40.15;;;21.60;99.90;;;;;;5148559;27;20481;-76
2023/08/25 10:49:02;;;;;;;55.65;40.47;;;21.70;99.90;;;;;;5129379;27;20389;-76
2023/08/25 10:51:27;;;;;;;56.00;39.95;;;21.50;99.90;;;;;;5095145;28;20417;-76
2023/08/25 10:53:54;;;;;;;55.87;39.93;;;21.80;99.90;;;;;;5078183;28;20402;-77
2023/08/25 10:56:22;;;;;;;62.20;41.25;;;21.90;99.90;;;;;;5078406;28;20409;-77
2023/08/25 10:59:04;;;;;;;58.05;38.92;;;21.90;99.90;;;;;;5129255;27;20819;-78
2023/08/25 11:01:36;;;;;;;52.38;37.67;;;22.10;99.90;;;;;;5137209;27;20481;-77
2023/08/25 11:04:11;;;;;;;49.75;37.10;;;22.00;99.90;;;;;;5097265;28;20445;-77
2023/08/25 11:06:53;;;;;;;50.25;37.50;;;21.80;99.90;;;;;;5129169;27;20398;-77
2023/08/25 11:09:22;;;;;;;53.03;38.85;;;22.00;99.90;;;;;;5078337;28;20402;-76
2023/08/25 11:11:56;;;;;;;52.25;37.65;;;22.10;99.90;;;;;;5077891;28;20409;-77
2023/08/25 11:14:27;;;;;;;48.90;37.80;;;22.40;99.90;;;;;;5128885;27;20409;-77
2023/08/25 11:16:53;;;;;;;55.13;38.83;;;22.00;99.90;;;;;;5144633;27;20420;-76
2023/08/25 11:19:19;;;;;;;52.63;37.85;;;21.70;99.90;;;;;;5114711;28;20744;-76
2023/08/25 11:22:05;;;;;;;54.38;38.38;;;21.90;99.90;;;;;;5149542;27;20496;-76
2023/08/25 11:24:31;;;;;;;51.97;37.45;;;22.20;99.90;;;;;;5097957;28;20396;-77
2023/08/25 11:27:05;;;;;;;52.47;38.42;;;22.30;99.90;;;;;;5114575;28;20402;-77
2023/08/25 11:29:31;;;;;;;50.53;36.28;;;21.90;99.90;;;;;;5096397;28;20431;-77
2023/08/25 11:31:57;;;;;;;49.17;37.95;;;21.90;99.90;;;;;;5149317;27;20400;-76
2023/08/25 11:34:23;;;;;;;50.85;36.00;;;22.00;99.90;;;;;;5114928;28;20404;-76
2023/08/25 11:36:49;;;;;;;45.70;34.47;;;22.10;99.90;;;;;;5132379;27;20747;-75
2023/08/25 11:39:18;;;;;;;42.90;33.40;;;22.10;99.90;;;;;;5099964;28;20440;-76
2023/08/25 11:41:45;;;;;;;31.53;24.93;;;22.20;99.90;;;;;;5098146;28;20427;-76
2023/08/25 11:44:16;;;;;;;35.65;27.80;;;22.70;99.90;;;;;;5082549;28;20462;-76
2023/08/25 11:46:41;;;;;;;43.53;33.30;;;22.50;99.90;;;;;;5077352;28;20458;-76
2023/08/25 11:49:07;;;;;;;44.40;32.95;;;22.70;99.90;;;;;;5094147;28;20409;-75
2023/08/25 11:51:36;;;;;;;42.07;31.73;;;22.80;99.90;;;;;;5128222;27;20406;-76
2023/08/25 11:54:05;;;;;;;39.92;31.38;;;23.00;99.90;;;;;;5128323;27;20440;-77
2023/08/25 11:56:31;;;;;;;38.20;29.25;;;23.30;99.90;;;;;;5077014;28;20424;-75
2023/08/25 11:58:57;;;;;;;37.25;30.02;;;23.30;99.90;;;;;;5110853;28;20418;-76
2023/08/25 12:01:31;;;;;;;36.87;28.17;;;23.60;99.90;;;;;;5076983;28;20414;-77
2023/08/25 12:03:58;;;;;;;34.15;27.25;;;23.50;99.90;;;;;;5127812;27;20402;-76
2023/08/25 12:06:25;;;;;;;37.55;30.08;;;23.40;99.90;;;;;;5076686;28;20402;-76
2023/08/25 12:08:50;;;;;;;37.38;29.10;;;23.60;99.90;;;;;;5093278;28;20425;-76
2023/08/25 12:11:16;;;;;;;33.73;26.60;;;23.30;99.90;;;;;;5092794;27;20478;-76
2023/08/25 12:13:43;;;;;;;35.15;26.67;;;23.50;99.90;;;;;;5076704;28;20398;-76
2023/08/25 12:16:13;;;;;;;30.98;23.27;;;23.60;99.90;;;;;;5128070;27;20916;-76
2023/08/25 12:18:40;;;;;;;32.87;25.50;;;23.80;99.90;;;;;;5127726;27;20397;-76
2023/08/25 12:21:07;;;;;;;33.40;26.20;;;23.80;99.90;;;;;;5111127;28;20777;-76
2023/08/25 12:23:38;;;;;;;32.45;26.33;;;23.80;99.90;;;;;;5076511;28;20418;-76
2023/08/25 12:26:05;;;;;;;31.45;23.30;;;23.90;99.90;;;;;;5110322;28;20405;-76
2023/08/25 12:28:31;;;;;;;30.67;23.67;;;24.10;99.90;;;;;;5108747;27;20411;-77